Time;durP1;ratioP1;P1;durP2;ratioP2;P2;SDS_P1;SDS_P2;PMS_P1;PMS_P2;Temp;Humidity;BMP_temperature;BMP_pressure;BME280_temperature;BME280_humidity;BME280_pressure;Samples;Min_cycle;Max_cycle;Signal;HPM_P1;HPM_P2
2023/01/07 00:00:19;;;;;;;3.85;1.27;;;24.40;50.20;;;;;;5071245;28;20195;-53
2023/01/07 00:02:54;;;;;;;3.17;1.42;;;24.30;50.10;;;;;;5085457;28;20557;-50
2023/01/07 00:05:24;;;;;;;2.70;1.45;;;24.40;50.30;;;;;;5092648;28;20216;-48
2023/01/07 00:07:55;;;;;;;3.15;1.45;;;24.30;50.30;;;;;;5092754;28;20209;-55
2023/01/07 00:10:26;;;;;;;4.38;1.20;;;24.40;50.50;;;;;;5091313;28;20658;-56
2023/01/07 00:12:57;;;;;;;4.30;1.67;;;24.40;50.60;;;;;;5080630;28;20593;-53
2023/01/07 00:15:27;;;;;;;3.03;1.50;;;24.30;50.50;;;;;;5072660;28;20207;-56
2023/01/07 00:18:00;;;;;;;6.38;1.88;;;24.40;50.60;;;;;;5072196;28;20786;-56
2023/01/07 00:20:31;;;;;;;2.35;1.30;;;24.30;50.50;;;;;;5073018;28;20195;-55
2023/01/07 00:23:01;;;;;;;3.15;1.20;;;24.30;50.60;;;;;;5072951;28;20210;-50
2023/01/07 00:25:32;;;;;;;3.03;1.10;;;24.30;50.60;;;;;;5072628;28;20218;-58
2023/01/07 00:28:03;;;;;;;2.95;1.30;;;24.30;50.60;;;;;;5093377;28;20202;-57
2023/01/07 00:30:33;;;;;;;2.58;1.50;;;24.30;50.70;;;;;;5093318;28;20654;-52
2023/01/07 00:33:08;;;;;;;2.95;1.10;;;24.30;50.60;;;;;;5093116;28;20225;-54
2023/01/07 00:35:39;;;;;;;2.65;1.35;;;24.30;50.60;;;;;;5093235;28;20217;-54
2023/01/07 00:38:10;;;;;;;3.88;1.67;;;24.30;50.70;;;;;;5093227;28;20279;-55
2023/01/07 00:43:18;;;;;;;3.60;1.38;;;24.30;50.60;;;;;;5071519;28;20225;-50
2023/01/07 00:45:49;;;;;;;2.80;1.55;;;24.40;50.60;;;;;;5089389;28;20261;-48
2023/01/07 00:48:22;;;;;;;4.00;1.70;;;24.30;50.50;;;;;;5092774;28;20198;-58
2023/01/07 00:50:54;;;;;;;3.95;1.60;;;24.30;50.60;;;;;;5093041;28;20576;-54
2023/01/07 00:53:28;;;;;;;3.67;1.65;;;24.30;50.60;;;;;;5093226;28;20669;-50
2023/01/07 00:55:59;;;;;;;4.60;1.67;;;24.30;50.60;;;;;;5092286;28;20250;-54
2023/01/07 00:58:30;;;;;;;4.18;1.70;;;24.30;50.60;;;;;;5092942;28;20198;-46
2023/01/07 01:01:02;;;;;;;3.00;1.30;;;24.30;50.60;;;;;;5092809;28;20198;-54
2023/01/07 01:03:35;;;;;;;3.15;1.35;;;24.30;50.60;;;;;;5092983;28;20670;-54
2023/01/07 01:06:07;;;;;;;4.63;1.88;;;24.30;50.60;;;;;;5092772;28;20218;-55
2023/01/07 01:08:37;;;;;;;3.65;1.70;;;24.30;50.60;;;;;;5092615;28;20198;-46
2023/01/07 01:11:09;;;;;;;3.97;1.52;;;24.30;50.50;;;;;;5091420;28;20312;-51
2023/01/07 01:13:41;;;;;;;3.80;2.00;;;24.30;50.50;;;;;;5092518;28;20221;-49
2023/01/07 01:16:14;;;;;;;3.10;1.40;;;24.30;50.50;;;;;;5092013;28;20685;-49
2023/01/07 01:18:47;;;;;;;2.03;1.23;;;24.30;50.50;;;;;;5088830;28;20190;-46
2023/01/07 01:21:18;;;;;;;2.58;1.73;;;24.30;50.50;;;;;;5092157;28;20204;-54
2023/01/07 01:23:49;;;;;;;3.58;1.42;;;24.30;50.50;;;;;;5091907;28;20696;-48
2023/01/07 01:26:20;;;;;;;3.08;1.42;;;24.30;50.50;;;;;;5092220;28;20568;-54
2023/01/07 01:28:51;;;;;;;4.20;1.90;;;24.30;50.50;;;;;;5092177;28;20198;-55
2023/01/07 01:31:21;;;;;;;2.80;1.63;;;24.30;50.50;;;;;;5091920;28;20194;-53
2023/01/07 01:33:56;;;;;;;4.40;1.75;;;24.30;50.60;;;;;;5088935;28;20186;-50
2023/01/07 01:36:27;;;;;;;4.43;1.60;;;24.30;50.60;;;;;;5092057;28;20204;-52
2023/01/07 01:38:57;;;;;;;5.03;1.80;;;24.30;50.50;;;;;;5092179;28;20194;-49
2023/01/07 01:41:28;;;;;;;3.75;1.40;;;24.30;50.60;;;;;;5099189;22;20218;-47
2023/01/07 01:43:59;;;;;;;4.72;1.83;;;24.30;50.60;;;;;;5071077;28;20199;-52
2023/01/07 01:46:36;;;;;;;4.05;1.90;;;24.30;50.50;;;;;;5071224;28;20559;-49
2023/01/07 01:49:23;;;;;;;3.28;1.60;;;24.30;50.60;;;;;;5071458;28;20209;-51
2023/01/07 01:52:01;;;;;;;3.95;1.70;;;24.30;50.50;;;;;;5071300;28;20221;-50
2023/01/07 01:54:32;;;;;;;3.88;1.55;;;24.30;50.50;;;;;;5071324;28;20577;-50
2023/01/07 01:57:06;;;;;;;3.58;1.77;;;24.30;50.40;;;;;;5071519;28;20583;-51
2023/01/07 01:59:40;;;;;;;3.72;1.40;;;24.30;50.50;;;;;;5071462;28;20206;-52
2023/01/07 02:02:11;;;;;;;3.35;1.65;;;24.30;50.50;;;;;;5071109;28;20206;-56
2023/01/07 02:04:44;;;;;;;4.25;1.77;;;24.30;50.50;;;;;;5071182;28;20219;-58
2023/01/07 02:07:17;;;;;;;4.78;2.00;;;24.30;50.50;;;;;;5071269;28;20658;-56
2023/01/07 02:09:51;;;;;;;3.30;1.50;;;24.30;50.60;;;;;;5071048;28;20194;-55
2023/01/07 02:12:31;;;;;;;2.85;1.58;;;24.30;50.50;;;;;;5071131;28;20194;-56
2023/01/07 02:15:11;;;;;;;2.70;1.40;;;24.30;50.50;;;;;;5071324;28;20687;-49
2023/01/07 02:18:03;;;;;;;3.58;1.55;;;24.20;50.50;;;;;;5071022;28;20729;-52
2023/01/07 02:21:01;;;;;;;3.88;1.52;;;24.30;50.60;;;;;;5071251;28;20206;-53
2023/01/07 02:23:57;;;;;;;3.95;1.65;;;24.20;50.50;;;;;;5070762;28;20195;-52
2023/01/07 02:26:54;;;;;;;2.55;1.60;;;24.20;50.50;;;;;;5071095;28;20198;-50
2023/01/07 02:30:01;;;;;;;3.30;1.58;;;24.20;50.50;;;;;;5071095;28;20214;-52
2023/01/07 02:32:50;;;;;;;2.97;1.50;;;24.30;50.50;;;;;;5048230;28;20203;-54
2023/01/07 02:35:33;;;;;;;2.78;1.67;;;24.30;50.50;;;;;;5070659;28;20215;-51
2023/01/07 02:38:16;;;;;;;2.38;1.50;;;24.20;50.50;;;;;;5070557;28;20218;-49
2023/01/07 02:43:35;;;;;;;2.88;1.52;;;24.20;50.50;;;;;;5089548;28;20202;-51
2023/01/07 02:46:12;;;;;;;2.13;1.48;;;24.20;50.50;;;;;;5090555;28;20586;-51
2023/01/07 02:48:46;;;;;;;3.20;1.55;;;24.20;50.50;;;;;;5090779;28;20202;-46
2023/01/07 02:51:17;;;;;;;2.35;1.38;;;24.20;50.50;;;;;;5090760;28;20201;-45
2023/01/07 02:53:50;;;;;;;3.05;1.50;;;24.20;50.50;;;;;;5090947;28;20201;-50
2023/01/07 02:56:31;;;;;;;2.75;1.52;;;24.20;50.50;;;;;;5090999;28;20224;-44
2023/01/07 02:59:46;;;;;;;2.58;1.40;;;24.20;50.50;;;;;;5089552;28;20681;-44
2023/01/07 03:02:52;;;;;;;3.95;1.50;;;24.20;50.50;;;;;;5028072;28;20603;-54
2023/01/07 03:05:52;;;;;;;2.58;1.27;;;24.20;50.50;;;;;;5026732;28;20220;-45
2023/01/07 03:08:41;;;;;;;2.15;1.30;;;24.20;50.50;;;;;;5086545;28;20220;-48
2023/01/07 03:11:13;;;;;;;3.17;1.48;;;24.20;50.50;;;;;;5090453;28;20285;-47
2023/01/07 03:13:49;;;;;;;3.15;1.63;;;24.20;50.40;;;;;;5090393;28;20201;-46
2023/01/07 03:16:23;;;;;;;4.28;1.65;;;24.20;50.50;;;;;;5090478;28;20198;-51
2023/01/07 03:18:59;;;;;;;2.10;1.45;;;24.20;50.50;;;;;;5087669;28;20224;-43
2023/01/07 03:21:34;;;;;;;2.80;1.33;;;24.20;50.50;;;;;;5090852;28;20209;-50
2023/01/07 03:24:07;;;;;;;2.72;1.58;;;24.20;50.50;;;;;;5090669;28;20222;-46
2023/01/07 03:26:42;;;;;;;2.88;1.45;;;24.10;50.50;;;;;;5090168;28;20256;-48
2023/01/07 03:29:16;;;;;;;5.15;1.48;;;24.10;50.50;;;;;;5086738;28;20717;-43
2023/01/07 03:31:53;;;;;;;4.28;1.50;;;24.20;50.50;;;;;;5089886;28;20650;-44
2023/01/07 03:34:27;;;;;;;3.05;1.50;;;24.20;50.50;;;;;;5090732;28;20214;-50
2023/01/07 03:37:02;;;;;;;2.90;1.40;;;24.20;50.50;;;;;;5094238;28;20668;-43
2023/01/07 03:39:35;;;;;;;2.10;1.27;;;24.20;50.40;;;;;;5094506;28;20197;-46
2023/01/07 03:44:56;;;;;;;5.43;1.85;;;24.20;50.50;;;;;;5094396;28;20221;-47
2023/01/07 03:47:27;;;;;;;3.45;1.88;;;24.20;50.60;;;;;;5094118;28;20213;-56
2023/01/07 03:49:58;;;;;;;5.18;1.75;;;24.20;50.80;;;;;;5094483;28;20201;-43
2023/01/07 03:52:31;;;;;;;3.53;1.60;;;24.20;51.00;;;;;;5094170;28;20669;-51
2023/01/07 03:55:03;;;;;;;4.95;2.00;;;24.10;51.00;;;;;;5093821;28;20717;-46
2023/01/07 03:57:34;;;;;;;4.07;1.85;;;24.20;51.00;;;;;;5093722;28;20704;-47
2023/01/07 04:00:06;;;;;;;2.97;1.50;;;24.20;51.00;;;;;;5094086;28;20194;-47
2023/01/07 04:02:36;;;;;;;2.65;1.30;;;24.20;51.00;;;;;;5093711;28;20220;-60
2023/01/07 04:05:08;;;;;;;3.60;1.17;;;24.20;51.00;;;;;;5090861;28;20218;-51
2023/01/07 04:07:40;;;;;;;5.60;1.70;;;24.20;51.20;;;;;;5091258;28;20198;-46
2023/01/07 04:10:12;;;;;;;7.13;1.80;;;24.20;51.50;;;;;;5088919;28;20209;-48
2023/01/07 04:12:43;;;;;;;8.50;1.95;;;24.20;51.40;;;;;;5073599;28;20724;-45
2023/01/07 04:15:14;;;;;;;6.88;1.70;;;24.20;51.50;;;;;;5073313;28;20215;-49
2023/01/07 04:17:44;;;;;;;6.30;1.60;;;24.20;51.40;;;;;;5073471;28;20218;-45
2023/01/07 04:20:15;;;;;;;5.60;1.48;;;24.20;51.40;;;;;;5073392;28;20525;-43
2023/01/07 04:22:48;;;;;;;2.88;1.45;;;24.20;51.40;;;;;;5073440;28;20202;-43
2023/01/07 04:25:18;;;;;;;5.43;1.95;;;24.20;51.40;;;;;;5072897;28;20293;-43
2023/01/07 04:27:49;;;;;;;4.15;1.55;;;24.20;51.30;;;;;;5073414;28;20539;-43
2023/01/07 04:30:20;;;;;;;3.30;1.55;;;24.20;51.30;;;;;;5073494;28;20195;-43
2023/01/07 04:32:50;;;;;;;3.63;1.23;;;24.20;51.30;;;;;;5073351;28;20809;-43
2023/01/07 04:35:21;;;;;;;3.42;1.38;;;24.20;51.30;;;;;;5073292;28;20577;-46
2023/01/07 04:37:54;;;;;;;5.05;1.63;;;24.20;51.20;;;;;;5073201;28;20234;-44
2023/01/07 04:40:24;;;;;;;4.78;1.50;;;24.20;51.30;;;;;;5092567;28;20289;-43
2023/01/07 04:42:55;;;;;;;2.63;1.38;;;24.10;51.20;;;;;;5093485;28;20202;-46
2023/01/07 04:45:26;;;;;;;5.90;1.55;;;24.10;51.20;;;;;;5092518;28;20217;-44
2023/01/07 04:47:58;;;;;;;4.22;1.50;;;24.10;51.20;;;;;;5093168;28;20195;-47
2023/01/07 04:50:29;;;;;;;3.08;1.50;;;24.10;51.20;;;;;;5093122;28;20240;-46
2023/01/07 04:53:01;;;;;;;2.78;1.20;;;24.10;51.20;;;;;;5093081;28;20583;-52
2023/01/07 04:55:32;;;;;;;2.63;1.30;;;24.10;51.10;;;;;;5093052;28;20241;-46
2023/01/07 04:58:03;;;;;;;3.63;1.60;;;24.10;51.10;;;;;;5093356;28;20233;-50
2023/01/07 05:00:33;;;;;;;3.88;1.70;;;24.10;51.10;;;;;;5093570;28;20194;-49
2023/01/07 05:03:04;;;;;;;2.83;1.33;;;24.10;51.10;;;;;;5093133;28;20739;-48
2023/01/07 05:05:35;;;;;;;3.97;1.25;;;24.10;51.10;;;;;;5092587;28;20210;-45
2023/01/07 05:08:07;;;;;;;2.50;1.20;;;24.10;51.10;;;;;;5092842;28;20657;-44
2023/01/07 05:10:38;;;;;;;2.55;1.20;;;24.10;51.10;;;;;;5092888;28;20205;-44
2023/01/07 05:13:09;;;;;;;2.63;1.15;;;24.10;51.10;;;;;;5092924;28;20199;-47
2023/01/07 05:15:39;;;;;;;2.10;1.10;;;24.10;51.10;;;;;;5092852;28;20245;-51
2023/01/07 05:18:10;;;;;;;1.98;1.23;;;24.10;51.10;;;;;;5091308;28;20226;-49
2023/01/07 05:20:41;;;;;;;2.53;1.30;;;24.00;51.00;;;;;;5072971;28;20209;-54
2023/01/07 05:23:13;;;;;;;3.50;1.40;;;24.00;51.00;;;;;;5072231;28;20195;-43
2023/01/07 05:25:45;;;;;;;1.77;1.25;;;24.10;51.00;;;;;;5075010;28;20210;-43
2023/01/07 05:28:16;;;;;;;2.45;1.17;;;24.10;51.00;;;;;;5072718;28;20201;-46
2023/01/07 05:30:47;;;;;;;2.35;1.08;;;24.10;50.90;;;;;;5072487;28;20198;-50
2023/01/07 05:33:18;;;;;;;3.53;1.50;;;24.10;51.00;;;;;;5072100;28;20199;-44
2023/01/07 05:35:50;;;;;;;2.08;1.30;;;24.10;51.00;;;;;;5072258;28;20218;-46
2023/01/07 05:38:23;;;;;;;2.75;1.25;;;24.00;50.90;;;;;;5074872;28;20225;-49
2023/01/07 05:40:56;;;;;;;4.50;1.13;;;24.00;50.90;;;;;;5092622;28;20209;-48
2023/01/07 05:43:26;;;;;;;2.42;1.20;;;24.00;51.00;;;;;;5092528;28;20293;-48
2023/01/07 05:45:57;;;;;;;2.30;1.52;;;24.00;50.90;;;;;;5092187;28;20214;-45
2023/01/07 05:48:28;;;;;;;2.90;1.38;;;24.00;50.90;;;;;;5092455;28;20195;-49
2023/01/07 05:50:59;;;;;;;4.25;1.30;;;24.00;50.90;;;;;;5092184;28;20194;-47
2023/01/07 05:53:31;;;;;;;3.35;1.17;;;24.00;50.90;;;;;;5091516;28;20686;-43
2023/01/07 05:56:03;;;;;;;2.88;1.30;;;24.00;50.90;;;;;;5091482;28;20210;-52
2023/01/07 05:58:33;;;;;;;1.98;1.10;;;24.00;50.90;;;;;;5091072;28;20240;-46
2023/01/07 06:01:04;;;;;;;2.83;1.15;;;24.00;50.90;;;;;;5091472;28;20752;-50
2023/01/07 06:03:35;;;;;;;2.33;1.15;;;24.00;50.90;;;;;;5091784;28;20198;-52
2023/01/07 06:06:07;;;;;;;1.65;1.02;;;24.00;50.90;;;;;;5091743;28;20222;-47
2023/01/07 06:08:41;;;;;;;1.88;1.33;;;24.00;50.90;;;;;;5091496;28;20255;-48
2023/01/07 06:11:11;;;;;;;2.20;1.30;;;24.00;50.80;;;;;;5091802;28;20645;-49
2023/01/07 06:13:42;;;;;;;3.33;1.15;;;24.00;50.90;;;;;;5091776;28;20229;-46
2023/01/07 06:16:14;;;;;;;2.75;1.20;;;24.00;50.90;;;;;;5091790;28;20203;-47
2023/01/07 06:18:45;;;;;;;3.03;1.30;;;24.00;50.80;;;;;;5091617;28;20225;-42
2023/01/07 06:21:17;;;;;;;3.47;1.25;;;23.90;50.80;;;;;;5091783;28;20194;-54
2023/01/07 06:23:49;;;;;;;2.95;1.30;;;24.00;50.80;;;;;;5091425;28;20199;-42
2023/01/07 06:26:20;;;;;;;3.08;1.20;;;23.90;50.80;;;;;;5091675;28;20212;-43
2023/01/07 06:28:52;;;;;;;2.88;1.30;;;23.90;50.80;;;;;;5091481;28;20198;-43
2023/01/07 06:31:23;;;;;;;3.63;1.50;;;23.90;50.80;;;;;;5091540;28;20653;-45
2023/01/07 06:33:53;;;;;;;2.35;1.38;;;23.90;50.80;;;;;;5090779;28;20202;-46
2023/01/07 06:36:24;;;;;;;2.78;1.10;;;23.90;50.80;;;;;;5091037;28;20201;-41
2023/01/07 06:38:57;;;;;;;3.05;1.40;;;23.90;50.70;;;;;;5091005;28;20229;-43
2023/01/07 06:41:27;;;;;;;1.08;0.77;;;23.80;50.80;;;;;;5091484;28;20209;-42
2023/01/07 06:43:58;;;;;;;2.35;1.30;;;23.90;50.80;;;;;;5090236;28;20194;-42
2023/01/07 06:46:29;;;;;;;3.28;1.15;;;23.80;50.70;;;;;;5090865;28;20209;-42
2023/01/07 06:48:59;;;;;;;1.95;1.10;;;23.80;50.70;;;;;;5090775;28;20201;-42
2023/01/07 06:51:30;;;;;;;2.30;1.27;;;23.80;50.70;;;;;;5091016;28;20646;-42
2023/01/07 06:54:03;;;;;;;2.45;0.98;;;23.80;50.70;;;;;;5091182;28;20223;-42
2023/01/07 06:56:33;;;;;;;2.47;1.08;;;23.80;50.70;;;;;;5091222;28;20198;-43
2023/01/07 06:59:04;;;;;;;2.17;1.15;;;23.80;50.70;;;;;;5090716;28;20716;-43
2023/01/07 07:01:35;;;;;;;2.78;1.08;;;23.80;50.70;;;;;;5078812;28;20201;-45
2023/01/07 07:04:05;;;;;;;4.38;1.30;;;23.80;50.70;;;;;;5070336;28;20195;-44
2023/01/07 07:06:36;;;;;;;2.53;1.02;;;23.70;50.60;;;;;;5070338;28;20199;-54
2023/01/07 07:09:09;;;;;;;2.83;1.10;;;23.70;50.60;;;;;;5079471;28;20557;-42
2023/01/07 07:11:39;;;;;;;2.65;1.17;;;23.70;50.60;;;;;;5095002;28;20822;-43
2023/01/07 07:14:10;;;;;;;2.22;1.00;;;23.70;50.60;;;;;;5094622;28;20214;-43
2023/01/07 07:16:41;;;;;;;1.88;1.08;;;23.70;50.60;;;;;;5094874;28;20221;-42
2023/01/07 07:19:12;;;;;;;2.97;1.20;;;23.70;50.60;;;;;;5080588;28;20229;-44
2023/01/07 07:21:42;;;;;;;2.47;1.20;;;23.70;50.60;;;;;;5074858;28;20277;-45
2023/01/07 07:24:15;;;;;;;1.48;1.05;;;23.70;50.60;;;;;;5074449;28;20221;-53
2023/01/07 07:26:46;;;;;;;2.53;1.17;;;23.70;50.60;;;;;;5074590;28;20198;-49
2023/01/07 07:29:17;;;;;;;1.58;0.95;;;23.70;50.70;;;;;;5074796;28;20602;-49
2023/01/07 07:31:47;;;;;;;2.70;1.20;;;23.70;50.60;;;;;;5074717;28;20191;-43
2023/01/07 07:34:18;;;;;;;2.40;1.23;;;23.70;50.60;;;;;;5074572;28;20210;-44
2023/01/07 07:36:49;;;;;;;1.83;1.00;;;23.60;50.60;;;;;;5074340;28;20570;-53
2023/01/07 07:39:21;;;;;;;2.40;1.10;;;23.60;50.60;;;;;;5084922;28;20229;-43
2023/01/07 07:41:52;;;;;;;1.92;1.05;;;23.60;50.70;;;;;;5095040;28;20606;-46
2023/01/07 07:44:22;;;;;;;1.45;0.98;;;23.60;50.60;;;;;;5094164;28;20218;-52
2023/01/07 07:46:53;;;;;;;2.30;0.93;;;23.60;50.60;;;;;;5094375;28;20627;-49
2023/01/07 07:49:24;;;;;;;1.83;1.13;;;23.60;50.60;;;;;;5094277;28;20209;-44
2023/01/07 07:51:54;;;;;;;1.48;1.00;;;23.60;50.60;;;;;;5093955;28;20202;-55
2023/01/07 07:54:27;;;;;;;2.30;1.17;;;23.60;50.60;;;;;;5093980;28;20576;-50
2023/01/07 07:56:58;;;;;;;2.05;1.30;;;23.50;50.60;;;;;;5094232;28;20280;-48
2023/01/07 07:59:29;;;;;;;1.77;0.93;;;23.50;50.60;;;;;;5094033;28;20234;-52
2023/01/07 08:01:59;;;;;;;2.00;1.00;;;23.50;50.50;;;;;;5094040;28;20643;-55
2023/01/07 08:04:32;;;;;;;1.40;0.98;;;23.50;50.60;;;;;;5094313;28;20719;-53
2023/01/07 08:07:03;;;;;;;2.28;1.50;;;23.50;50.50;;;;;;5094052;28;20197;-53
2023/01/07 08:09:36;;;;;;;1.92;1.27;;;23.50;50.50;;;;;;5093769;28;20198;-53
2023/01/07 08:12:07;;;;;;;2.50;1.20;;;23.50;50.60;;;;;;5091250;28;20198;-58
2023/01/07 08:14:37;;;;;;;3.53;1.45;;;23.50;50.50;;;;;;5091119;28;20222;-53
2023/01/07 08:17:08;;;;;;;3.47;1.20;;;23.50;51.20;;;;;;5091791;28;20209;-50
2023/01/07 08:19:39;;;;;;;2.33;1.27;;;23.50;50.70;;;;;;5084525;28;20226;-51
2023/01/07 08:22:09;;;;;;;2.22;1.27;;;23.50;50.60;;;;;;5072062;28;20194;-56
2023/01/07 08:24:42;;;;;;;2.33;1.05;;;23.50;50.60;;;;;;5072772;28;20216;-47
2023/01/07 08:27:13;;;;;;;1.73;1.20;;;23.50;50.60;;;;;;5073328;28;20202;-59
2023/01/07 08:29:43;;;;;;;3.22;1.35;;;23.50;50.60;;;;;;5077045;28;20203;-50
2023/01/07 08:32:14;;;;;;;2.22;1.30;;;23.40;50.60;;;;;;5073018;28;20195;-52
2023/01/07 08:34:45;;;;;;;2.47;1.40;;;23.40;50.60;;;;;;5072379;28;20681;-45
2023/01/07 08:37:16;;;;;;;1.52;1.10;;;23.40;50.60;;;;;;5072409;28;20249;-53
2023/01/07 08:39:48;;;;;;;1.48;1.20;;;23.40;50.60;;;;;;5082504;28;20694;-44
2023/01/07 08:42:19;;;;;;;1.65;1.30;;;23.40;50.60;;;;;;5072846;28;20658;-60
2023/01/07 08:44:49;;;;;;;2.78;1.45;;;23.40;50.50;;;;;;5072629;28;20214;-52
2023/01/07 08:47:20;;;;;;;1.77;1.30;;;23.40;50.60;;;;;;5074098;28;20195;-55
2023/01/07 08:49:51;;;;;;;2.30;1.30;;;23.40;50.50;;;;;;5088756;28;20201;-60
2023/01/07 08:52:22;;;;;;;2.38;1.15;;;23.40;50.50;;;;;;5091686;28;20194;-61
2023/01/07 08:54:56;;;;;;;1.75;1.25;;;23.40;50.60;;;;;;5087077;28;20203;-53
2023/01/07 08:57:27;;;;;;;1.90;1.30;;;23.40;50.60;;;;;;5071595;28;20195;-56
2023/01/07 08:59:57;;;;;;;2.58;1.60;;;23.30;50.50;;;;;;5075323;28;20686;-60
2023/01/07 09:02:28;;;;;;;2.38;1.45;;;23.30;50.50;;;;;;5091846;28;20194;-53
2023/01/07 09:04:59;;;;;;;2.88;1.20;;;23.30;50.50;;;;;;5087813;28;20213;-53
2023/01/07 09:07:29;;;;;;;2.45;1.40;;;23.30;50.50;;;;;;5081143;28;20197;-59
2023/01/07 09:10:02;;;;;;;2.47;1.30;;;23.30;50.50;;;;;;5087602;28;20194;-45
2023/01/07 09:12:33;;;;;;;1.95;1.33;;;23.30;50.50;;;;;;5071701;28;20195;-54
2023/01/07 09:15:03;;;;;;;3.10;1.45;;;23.30;50.50;;;;;;5073401;28;20218;-46
2023/01/07 09:17:34;;;;;;;2.42;1.42;;;23.30;50.50;;;;;;5092646;28;20194;-53
2023/01/07 09:20:05;;;;;;;1.73;1.40;;;23.30;50.50;;;;;;5086310;28;20218;-57
2023/01/07 09:22:37;;;;;;;2.72;1.40;;;23.30;50.50;;;;;;5071481;28;20290;-50
2023/01/07 09:25:11;;;;;;;2.67;1.20;;;23.30;50.50;;;;;;5070686;28;20218;-48
2023/01/07 09:27:44;;;;;;;2.42;1.60;;;23.20;50.40;;;;;;5071110;28;20823;-55
2023/01/07 09:30:15;;;;;;;2.35;1.45;;;23.20;50.40;;;;;;5077689;28;20194;-51
2023/01/07 09:32:47;;;;;;;1.73;1.40;;;23.20;50.40;;;;;;5090135;28;20677;-60
2023/01/07 09:35:17;;;;;;;3.47;1.60;;;23.20;50.50;;;;;;5090794;28;20214;-47
2023/01/07 09:37:48;;;;;;;2.55;1.30;;;23.20;50.40;;;;;;5091760;28;20202;-56
2023/01/07 09:40:27;;;;;;;2.70;1.38;;;23.20;50.40;;;;;;5087755;28;20217;-50
2023/01/07 09:43:06;;;;;;;2.65;1.20;;;23.20;50.40;;;;;;5091229;28;20532;-44
2023/01/07 09:45:38;;;;;;;3.67;1.65;;;23.20;50.40;;;;;;5091493;28;20275;-52
2023/01/07 09:48:18;;;;;;;2.65;1.40;;;23.20;50.40;;;;;;5090806;28;20195;-45
2023/01/07 09:50:56;;;;;;;2.90;1.67;;;23.20;50.40;;;;;;5091057;28;20650;-44
2023/01/07 09:53:32;;;;;;;2.13;1.38;;;23.20;50.40;;;;;;5090328;28;20323;-51
2023/01/07 09:56:08;;;;;;;2.50;1.60;;;23.10;50.40;;;;;;5090591;28;20295;-50
2023/01/07 09:58:38;;;;;;;2.45;1.48;;;23.10;50.40;;;;;;5091021;28;20190;-51
2023/01/07 10:01:19;;;;;;;3.40;1.55;;;23.10;50.40;;;;;;5091213;28;20267;-49
2023/01/07 10:03:56;;;;;;;2.00;1.20;;;23.10;50.40;;;;;;5090585;28;20206;-51
2023/01/07 10:06:35;;;;;;;1.55;1.23;;;23.10;51.00;;;;;;5091351;28;20194;-49
2023/01/07 10:09:14;;;;;;;2.63;1.55;;;23.10;50.40;;;;;;5091453;28;20654;-42
2023/01/07 10:11:56;;;;;;;2.25;1.35;;;23.10;51.00;;;;;;5075844;28;20230;-43
2023/01/07 10:14:55;;;;;;;2.20;1.55;;;23.00;50.30;;;;;;5070212;28;20219;-42
2023/01/07 10:17:37;;;;;;;2.13;1.50;;;23.00;50.30;;;;;;5052931;28;20646;-43
2023/01/07 10:20:15;;;;;;;2.55;1.48;;;23.00;50.30;;;;;;5090370;28;20228;-49
2023/01/07 10:22:52;;;;;;;2.08;1.38;;;23.00;50.30;;;;;;5090251;28;20198;-53
2023/01/07 10:25:24;;;;;;;3.08;1.67;;;23.00;50.30;;;;;;5090102;28;20221;-47
2023/01/07 10:28:00;;;;;;;1.92;1.35;;;23.00;50.30;;;;;;5090534;28;20568;-45
2023/01/07 10:30:33;;;;;;;2.35;1.42;;;23.00;50.30;;;;;;5091217;28;20205;-49
2023/01/07 10:33:18;;;;;;;2.97;2.13;;;23.00;50.30;;;;;;5090447;28;20204;-51
2023/01/07 10:35:53;;;;;;;2.70;1.60;;;23.00;50.30;;;;;;5074943;28;20229;-47
2023/01/07 10:38:24;;;;;;;1.67;1.35;;;23.00;50.30;;;;;;5089841;28;20204;-48
2023/01/07 10:41:02;;;;;;;2.22;1.52;;;22.90;50.20;;;;;;5083769;28;20230;-47
2023/01/07 10:43:51;;;;;;;2.88;1.70;;;22.90;50.20;;;;;;5070204;28;20641;-47
2023/01/07 10:46:42;;;;;;;2.38;1.77;;;22.90;50.30;;;;;;5070939;28;20191;-47
2023/01/07 10:49:45;;;;;;;2.97;1.70;;;22.90;50.20;;;;;;5088121;28;20217;-50
2023/01/07 10:52:31;;;;;;;3.13;1.35;;;22.90;50.30;;;;;;5072705;28;20198;-46
2023/01/07 10:55:24;;;;;;;1.85;1.60;;;22.90;50.20;;;;;;5088659;28;20240;-46
2023/01/07 10:57:54;;;;;;;2.97;1.80;;;22.90;50.20;;;;;;5090590;28;20198;-55
2023/01/07 11:00:28;;;;;;;3.17;1.40;;;22.90;50.20;;;;;;5070255;28;20226;-46
2023/01/07 11:03:01;;;;;;;1.63;1.50;;;22.80;50.20;;;;;;5070346;28;20195;-53
2023/01/07 11:05:38;;;;;;;1.98;1.33;;;22.80;50.20;;;;;;5071962;28;20219;-48
2023/01/07 11:08:15;;;;;;;1.85;1.40;;;22.80;50.30;;;;;;5087321;28;20202;-43
2023/01/07 11:10:46;;;;;;;2.40;1.60;;;22.80;50.20;;;;;;5078798;28;20186;-53
2023/01/07 11:13:20;;;;;;;2.78;1.63;;;22.80;50.20;;;;;;5090095;28;20676;-43
2023/01/07 11:15:57;;;;;;;1.45;1.25;;;22.80;50.20;;;;;;5082661;28;20217;-47
2023/01/07 11:18:33;;;;;;;1.92;1.48;;;22.80;50.20;;;;;;5070533;28;20202;-50
2023/01/07 11:21:04;;;;;;;3.55;1.75;;;22.80;50.20;;;;;;5073999;28;20214;-50
2023/01/07 11:23:37;;;;;;;2.70;1.40;;;22.80;50.20;;;;;;5082505;28;20191;-48
2023/01/07 11:26:17;;;;;;;2.65;1.63;;;22.80;50.20;;;;;;5069170;28;20227;-49
2023/01/07 11:28:54;;;;;;;3.20;1.63;;;22.80;50.20;;;;;;5069839;28;20204;-50
2023/01/07 11:31:48;;;;;;;2.65;1.60;;;22.70;50.20;;;;;;5070180;28;20643;-59
2023/01/07 11:34:25;;;;;;;2.88;1.60;;;22.70;50.20;;;;;;5070630;28;20304;-53
2023/01/07 11:36:56;;;;;;;1.70;1.50;;;22.70;50.20;;;;;;5070489;28;20206;-51
2023/01/07 11:39:28;;;;;;;2.90;1.50;;;22.70;50.20;;;;;;5081725;28;20206;-49
2023/01/07 11:42:37;;;;;;;2.15;1.65;;;22.70;50.20;;;;;;5090468;28;20204;-58
2023/01/07 11:44:51;;;;;;;3.08;1.70;;;22.70;50.20;;;;;;5096050;22;20220;-51
2023/01/07 11:47:24;;;;;;;2.90;1.35;;;22.70;50.70;;;;;;5049608;28;20196;-46
2023/01/07 11:49:54;;;;;;;2.15;1.48;;;22.70;50.20;;;;;;5049576;28;20203;-50
2023/01/07 11:52:25;;;;;;;2.58;1.58;;;22.60;50.20;;;;;;5049703;28;20200;-50
2023/01/07 11:54:56;;;;;;;2.45;1.40;;;22.60;50.20;;;;;;5059449;28;20219;-49
2023/01/07 11:57:28;;;;;;;1.90;1.55;;;22.60;50.20;;;;;;5073543;28;20195;-52
2023/01/07 12:00:17;;;;;;;3.03;1.65;;;22.60;50.20;;;;;;5073486;28;20225;-48
2023/01/07 12:03:03;;;;;;;1.70;1.30;;;22.60;50.20;;;;;;5073664;28;20198;-51
2023/01/07 12:05:34;;;;;;;2.20;1.40;;;22.60;50.20;;;;;;5073897;28;20237;-46
2023/01/07 12:08:05;;;;;;;2.55;1.70;;;22.60;50.20;;;;;;5073749;28;20195;-46
2023/01/07 12:10:37;;;;;;;2.08;1.40;;;22.60;50.20;;;;;;5073365;28;20194;-48
2023/01/07 12:13:20;;;;;;;2.35;1.25;;;22.60;50.20;;;;;;5073162;28;20571;-49
2023/01/07 12:15:54;;;;;;;2.38;1.77;;;22.60;50.10;;;;;;5073122;28;20226;-45
2023/01/07 12:18:52;;;;;;;1.63;1.33;;;22.50;50.10;;;;;;5073333;28;20198;-52
2023/01/07 12:21:41;;;;;;;2.58;1.60;;;22.50;50.10;;;;;;5073166;28;20241;-47
2023/01/07 12:24:52;;;;;;;2.42;1.30;;;22.50;50.10;;;;;;5073332;28;20219;-46
2023/01/07 12:27:32;;;;;;;2.35;1.30;;;22.50;50.10;;;;;;5051058;28;20334;-45
2023/01/07 12:30:24;;;;;;;4.10;1.42;;;22.50;50.10;;;;;;5069414;28;20544;-49
2023/01/07 12:33:04;;;;;;;2.65;1.55;;;22.50;50.10;;;;;;5073032;28;20206;-45
2023/01/07 12:35:41;;;;;;;2.38;1.60;;;22.50;50.10;;;;;;5072846;28;20219;-46
2023/01/07 12:38:16;;;;;;;3.03;1.95;;;22.50;50.10;;;;;;5072941;28;20529;-47
2023/01/07 12:40:52;;;;;;;2.35;1.60;;;22.50;50.10;;;;;;5072931;28;20257;-46
2023/01/07 12:43:29;;;;;;;2.20;1.42;;;22.50;50.10;;;;;;5073036;28;20211;-46
2023/01/07 12:46:02;;;;;;;2.55;1.40;;;22.40;50.10;;;;;;5073545;28;20218;-46
2023/01/07 12:48:40;;;;;;;2.60;1.65;;;22.40;50.10;;;;;;5073229;28;20202;-46
2023/01/07 12:51:18;;;;;;;2.00;1.45;;;22.40;50.10;;;;;;5072997;28;20557;-52
2023/01/07 12:53:54;;;;;;;2.17;1.45;;;22.40;50.10;;;;;;5072048;28;20194;-53
2023/01/07 12:56:31;;;;;;;2.70;1.55;;;22.40;50.10;;;;;;5072435;28;20201;-50
2023/01/07 12:59:07;;;;;;;1.98;1.25;;;22.40;50.10;;;;;;5072484;28;20191;-49
2023/01/07 13:01:43;;;;;;;2.22;1.23;;;22.40;50.10;;;;;;5072206;28;20226;-50
2023/01/07 13:04:29;;;;;;;2.03;1.60;;;22.40;50.10;;;;;;5071943;28;20222;-48
2023/01/07 13:07:07;;;;;;;1.92;1.42;;;22.40;50.10;;;;;;5071599;28;20194;-51
2023/01/07 13:09:46;;;;;;;3.35;1.50;;;22.40;50.10;;;;;;5072373;28;20217;-52
2023/01/07 13:15:14;;;;;;;2.25;1.52;;;22.30;50.00;;;;;;5072287;28;20210;-53
2023/01/07 13:17:45;;;;;;;2.63;1.40;;;22.30;50.00;;;;;;5072129;28;20204;-54
2023/01/07 13:20:17;;;;;;;2.75;1.50;;;22.30;50.00;;;;;;5072523;28;20226;-51
2023/01/07 13:22:54;;;;;;;2.70;1.50;;;22.30;50.10;;;;;;5071930;28;20199;-52
2023/01/07 13:25:43;;;;;;;2.33;1.38;;;22.30;50.00;;;;;;5051633;28;20219;-49
2023/01/07 13:28:39;;;;;;;1.88;1.33;;;22.30;50.00;;;;;;5051454;28;20214;-48
2023/01/07 13:31:23;;;;;;;2.45;1.38;;;22.20;50.00;;;;;;5050101;28;20202;-49
2023/01/07 13:34:04;;;;;;;1.98;1.45;;;22.30;50.00;;;;;;5052067;28;20207;-49
2023/01/07 13:36:41;;;;;;;2.40;1.40;;;22.20;50.60;;;;;;5052116;28;20207;-50